Franzen, Wisconsin
Current Conditions -  °F | °C
As of 5:55 AM on Thursday 27 Nov 2014 (Local Time) from KAIG Reporting Station
Broken Clouds Broken Clouds  
Wind Chill: -6°   Ceiling: 4700
Heat Index:   Visibility: 10mi
Dew Point:   Wind: 10mph
Humidity: 83%   Direction: 350°N
Pressure: 30.26"   Gusts: NA
Location:  44.8179°N, 89.172°W
Report Text: KAIG 271155Z AUTO 35009KT 10SM BKN047 M13/M16 A3026 RMK AO2 T11331156 11074 21133
Loading
Personal Weather Stations






























Interactive Weather Map New forecast layout! Learn more

10-Day Weather Forecast

Advertisements
Track Severe Weather on mobile